createdAt,value
2023-05-21T00:01:17.497Z,14.20
2023-05-21T00:03:46.495Z,14.20
2023-05-21T00:06:14.136Z,14.10
2023-05-21T00:08:43.918Z,14.20
2023-05-21T00:11:12.954Z,14.10
2023-05-21T00:13:40.126Z,14.10
2023-05-21T00:16:17.058Z,14.10
2023-05-21T00:18:47.693Z,14.00
2023-05-21T00:21:17.831Z,14.00
2023-05-21T00:23:45.889Z,13.90
2023-05-21T00:26:15.202Z,14.00
2023-05-21T00:28:49.157Z,13.90
2023-05-21T00:31:17.575Z,13.90
2023-05-21T00:33:45.520Z,13.80
2023-05-21T00:36:14.672Z,13.80
2023-05-21T00:38:46.317Z,13.70
2023-05-21T00:41:13.969Z,13.70
2023-05-21T00:43:41.321Z,13.70
2023-05-21T00:46:21.728Z,13.70
2023-05-21T00:48:50.702Z,13.70
2023-05-21T00:51:18.952Z,13.70
2023-05-21T00:53:46.978Z,13.50
2023-05-21T00:56:14.839Z,13.60
2023-05-21T00:58:42.988Z,13.50
2023-05-21T01:01:14.236Z,13.50
2023-05-21T01:03:42.389Z,13.50
2023-05-21T01:06:11.478Z,13.40
2023-05-21T01:08:41.049Z,13.40
2023-05-21T01:11:10.054Z,13.40
2023-05-21T01:13:42.082Z,13.30
2023-05-21T01:16:21.356Z,13.30
2023-05-21T01:18:48.931Z,13.30
2023-05-21T01:21:20.737Z,13.30
2023-05-21T01:23:51.739Z,13.30
2023-05-21T01:26:22.927Z,13.20
2023-05-21T01:28:54.014Z,13.20
2023-05-21T01:31:31.612Z,13.10
2023-05-21T01:34:03.798Z,13.10
2023-05-21T01:36:41.208Z,13.10
2023-05-21T01:39:24.212Z,12.90
2023-05-21T01:41:57.360Z,12.90
2023-05-21T01:44:29.398Z,12.90
2023-05-21T01:46:59.622Z,12.90
2023-05-21T01:49:27.922Z,12.90
2023-05-21T01:51:55.915Z,12.80
2023-05-21T01:54:24.373Z,12.80
2023-05-21T01:56:55.210Z,12.90
2023-05-21T01:59:23.568Z,12.80
2023-05-21T02:01:51.180Z,12.80
2023-05-21T02:04:21.148Z,12.80
2023-05-21T02:06:48.308Z,12.80
2023-05-21T02:09:19.092Z,12.80
2023-05-21T02:11:49.378Z,12.80
2023-05-21T02:14:17.242Z,12.70
2023-05-21T02:16:45.412Z,12.80
2023-05-21T02:19:13.444Z,12.80
2023-05-21T02:21:41.083Z,12.80
2023-05-21T02:24:08.562Z,12.80
2023-05-21T02:26:36.289Z,12.80
2023-05-21T02:29:04.876Z,12.80
2023-05-21T02:31:32.580Z,12.90
2023-05-21T02:34:00.241Z,12.90
2023-05-21T02:36:36.549Z,12.90
2023-05-21T02:39:04.176Z,12.90
2023-05-21T02:41:34.257Z,12.90
2023-05-21T02:44:01.660Z,12.90
2023-05-21T02:46:32.213Z,13.00
2023-05-21T02:48:59.699Z,13.10
2023-05-21T02:51:27.870Z,13.10
2023-05-21T02:53:55.247Z,13.00
2023-05-21T02:56:26.594Z,13.10
2023-05-21T02:58:55.757Z,13.20
2023-05-21T03:01:23.273Z,13.20
2023-05-21T03:03:50.888Z,13.20
2023-05-21T03:06:18.420Z,13.30
2023-05-21T03:08:45.783Z,13.20
2023-05-21T03:11:14.005Z,13.40
2023-05-21T03:13:42.782Z,13.30
2023-05-21T03:16:14.626Z,13.40
2023-05-21T03:18:44.278Z,13.40
2023-05-21T03:21:15.839Z,13.50
2023-05-21T03:23:43.474Z,13.50
2023-05-21T03:26:17.178Z,13.60
2023-05-21T03:28:45.835Z,13.60
2023-05-21T03:31:13.525Z,13.70
2023-05-21T03:33:41.396Z,13.70
2023-05-21T03:36:10.019Z,13.80
2023-05-21T03:38:37.267Z,13.80
2023-05-21T03:41:04.829Z,13.90
2023-05-21T03:43:32.157Z,14.00
2023-05-21T03:45:59.977Z,13.90
2023-05-21T03:48:27.713Z,14.00
2023-05-21T03:50:55.169Z,14.10
2023-05-21T03:53:22.995Z,14.20
2023-05-21T03:55:55.680Z,14.20
2023-05-21T03:58:23.957Z,14.40
2023-05-21T04:00:53.658Z,15.10
2023-05-21T04:03:21.489Z,16.20
2023-05-21T04:05:50.909Z,17.90
2023-05-21T04:08:18.214Z,19.50
2023-05-21T04:10:48.899Z,21.00
2023-05-21T04:13:16.509Z,22.40
2023-05-21T04:15:44.833Z,23.80
2023-05-21T04:18:13.883Z,24.90
2023-05-21T04:20:41.382Z,25.80
2023-05-21T04:23:14.597Z,26.70
2023-05-21T04:25:42.651Z,27.50
2023-05-21T04:28:10.081Z,28.40
2023-05-21T04:30:37.968Z,28.90
2023-05-21T04:33:05.522Z,29.40
2023-05-21T04:35:33.667Z,29.90
2023-05-21T04:38:04.111Z,30.50
2023-05-21T04:40:33.060Z,31.10
2023-05-21T04:43:07.850Z,31.60
2023-05-21T04:45:38.877Z,32.10
2023-05-21T04:48:08.012Z,32.30
2023-05-21T04:50:38.678Z,32.50
2023-05-21T04:53:06.512Z,32.80
2023-05-21T04:55:37.688Z,33.40
2023-05-21T04:58:06.014Z,33.50
2023-05-21T05:00:37.873Z,33.90
2023-05-21T05:03:07.864Z,34.30
2023-05-21T05:05:40.672Z,34.60
2023-05-21T05:08:12.255Z,34.60
2023-05-21T05:10:41.544Z,34.90
2023-05-21T05:13:10.127Z,35.20
2023-05-21T05:15:37.972Z,35.60
2023-05-21T05:18:13.038Z,35.80
2023-05-21T05:20:40.483Z,36.00
2023-05-21T05:23:08.075Z,36.10
2023-05-21T05:25:35.785Z,36.30
2023-05-21T05:28:06.011Z,36.50
2023-05-21T05:30:34.585Z,37.00
2023-05-21T05:33:05.938Z,37.50
2023-05-21T05:35:34.938Z,37.80
2023-05-21T05:38:06.100Z,38.10
2023-05-21T05:40:33.601Z,37.90
2023-05-21T05:43:01.553Z,37.70
2023-05-21T05:45:31.355Z,37.60
2023-05-21T05:47:59.228Z,37.90
2023-05-21T05:50:34.929Z,38.50
2023-05-21T05:53:13.427Z,39.00
2023-05-21T05:55:41.167Z,39.50
2023-05-21T05:58:08.830Z,39.80
2023-05-21T06:00:40.747Z,40.10
2023-05-21T06:03:08.670Z,40.40
2023-05-21T06:05:36.568Z,40.90
2023-05-21T06:08:07.055Z,41.30
2023-05-21T06:10:35.159Z,41.80
2023-05-21T06:13:04.388Z,42.30
2023-05-21T06:15:33.606Z,42.80
2023-05-21T06:18:01.658Z,43.30
2023-05-21T06:20:30.070Z,44.10
2023-05-21T06:23:06.938Z,44.70
2023-05-21T06:25:35.018Z,45.10
2023-05-21T06:28:03.333Z,45.30
2023-05-21T06:30:30.988Z,44.90
2023-05-21T06:33:01.501Z,45.00
2023-05-21T06:35:29.685Z,45.00
2023-05-21T06:37:57.343Z,45.10
2023-05-21T06:40:24.872Z,45.40
2023-05-21T06:42:57.057Z,45.40
2023-05-21T06:45:30.319Z,45.10
2023-05-21T06:47:57.987Z,45.40
2023-05-21T06:50:26.284Z,45.50
2023-05-21T06:52:54.022Z,45.30
2023-05-21T06:55:22.216Z,46.00
2023-05-21T06:57:54.079Z,46.10
2023-05-21T07:00:22.481Z,46.30
2023-05-21T07:02:49.986Z,46.40
2023-05-21T07:05:19.500Z,46.50
2023-05-21T07:07:47.106Z,46.50
2023-05-21T07:10:18.632Z,46.80
2023-05-21T07:12:47.553Z,47.20
2023-05-21T07:15:18.797Z,47.20
2023-05-21T07:17:46.734Z,47.40
2023-05-21T07:20:14.330Z,47.80
2023-05-21T07:22:43.878Z,47.60
2023-05-21T07:25:12.208Z,47.40
2023-05-21T07:27:40.786Z,46.80
2023-05-21T07:30:10.246Z,46.40
2023-05-21T07:32:37.955Z,46.50
2023-05-21T07:35:07.040Z,46.40
2023-05-21T07:37:37.777Z,46.00
2023-05-21T07:40:07.537Z,45.50
2023-05-21T07:42:35.537Z,45.40
2023-05-21T07:45:04.476Z,45.60
2023-05-21T07:47:37.802Z,45.70
2023-05-21T07:50:08.964Z,45.90
2023-05-21T07:52:36.848Z,46.30
2023-05-21T07:55:04.531Z,46.40
2023-05-21T07:57:32.947Z,46.20
2023-05-21T08:00:00.845Z,46.40
2023-05-21T08:02:28.969Z,46.40
2023-05-21T08:04:56.782Z,46.30
2023-05-21T08:07:25.005Z,46.60
2023-05-21T08:09:54.176Z,46.80
2023-05-21T08:12:22.016Z,46.70
2023-05-21T08:14:49.815Z,46.80
2023-05-21T08:17:18.184Z,46.60
2023-05-21T08:19:46.851Z,46.00
2023-05-21T08:22:14.779Z,45.50
2023-05-21T08:24:42.706Z,45.30
2023-05-21T08:27:10.522Z,45.20
2023-05-21T08:29:38.529Z,44.70
2023-05-21T08:32:08.541Z,44.00
2023-05-21T08:34:36.689Z,43.30
2023-05-21T08:37:08.074Z,43.10
2023-05-21T08:39:44.182Z,43.00
2023-05-21T08:42:37.416Z,42.60
2023-05-21T08:45:10.363Z,42.50
2023-05-21T08:47:38.097Z,41.80
2023-05-21T08:50:14.515Z,41.40
2023-05-21T08:52:42.401Z,41.80
2023-05-21T08:55:10.799Z,42.20
2023-05-21T08:57:41.517Z,42.40
2023-05-21T09:00:10.129Z,42.60
2023-05-21T09:02:41.143Z,42.30
2023-05-21T09:05:10.805Z,41.90
2023-05-21T09:08:06.922Z,41.40
2023-05-21T09:10:40.693Z,41.30
2023-05-21T09:13:10.414Z,41.30
2023-05-21T09:15:38.151Z,41.10
2023-05-21T09:18:09.914Z,40.60
2023-05-21T09:20:37.711Z,40.50
2023-05-21T09:23:12.924Z,40.90
2023-05-21T09:25:40.337Z,41.40
2023-05-21T09:28:13.756Z,42.20
2023-05-21T09:30:50.696Z,42.90
2023-05-21T09:33:31.741Z,43.30
2023-05-21T09:35:59.688Z,43.40
2023-05-21T09:38:32.301Z,43.10
2023-05-21T09:41:00.165Z,43.10
2023-05-21T09:43:28.195Z,42.80
2023-05-21T09:45:58.367Z,42.50
2023-05-21T09:48:46.110Z,41.90
2023-05-21T09:51:23.866Z,41.10
2023-05-21T09:53:56.102Z,40.70
2023-05-21T09:56:29.754Z,40.30
2023-05-21T09:59:00.654Z,39.60
2023-05-21T10:01:28.965Z,39.10
2023-05-21T10:04:01.907Z,38.30
2023-05-21T10:06:32.482Z,37.40
2023-05-21T10:09:13.526Z,36.70
2023-05-21T10:11:45.097Z,36.20
2023-05-21T10:14:19.943Z,35.90
2023-05-21T10:16:51.331Z,35.50
2023-05-21T10:19:20.422Z,35.00
2023-05-21T10:21:52.472Z,34.40
2023-05-21T10:24:24.941Z,33.70
2023-05-21T10:26:53.151Z,33.20
2023-05-21T10:29:25.904Z,32.50
2023-05-21T10:31:54.158Z,32.20
2023-05-21T10:34:24.635Z,32.00
2023-05-21T10:36:57.608Z,31.60
2023-05-21T10:39:26.216Z,30.90
2023-05-21T10:42:12.667Z,30.10
2023-05-21T10:44:55.874Z,29.50
2023-05-21T10:48:08.104Z,28.80
2023-05-21T10:50:59.845Z,28.30
2023-05-21T10:53:50.864Z,27.60
2023-05-21T10:56:39.836Z,27.10
2023-05-21T10:59:43.018Z,26.80
2023-05-21T11:02:13.450Z,26.40
2023-05-21T11:04:46.049Z,26.10
2023-05-21T11:07:19.192Z,26.00
2023-05-21T11:09:46.916Z,25.80
2023-05-21T11:12:16.582Z,25.80
2023-05-21T11:14:57.442Z,25.70
2023-05-21T11:17:40.435Z,25.60
2023-05-21T11:20:14.103Z,25.50
2023-05-21T11:22:41.814Z,25.40
2023-05-21T11:25:12.012Z,25.40
2023-05-21T11:27:41.411Z,25.40
2023-05-21T11:30:19.481Z,25.40
2023-05-21T11:33:09.319Z,25.30
2023-05-21T11:35:47.289Z,25.20
2023-05-21T11:38:15.102Z,25.10
2023-05-21T11:40:55.643Z,25.00
2023-05-21T11:43:26.144Z,24.90
2023-05-21T11:45:53.994Z,25.00
2023-05-21T11:48:29.957Z,25.00
2023-05-21T11:50:59.207Z,25.10
2023-05-21T11:53:29.983Z,25.10
2023-05-21T11:55:57.912Z,25.20
2023-05-21T11:58:32.076Z,25.20
2023-05-21T12:01:06.970Z,25.20
2023-05-21T12:03:38.263Z,25.30
2023-05-21T12:06:06.810Z,25.30
2023-05-21T12:08:34.718Z,25.30
2023-05-21T12:11:05.687Z,25.20
2023-05-21T12:13:35.981Z,25.00
2023-05-21T12:16:06.699Z,24.90
2023-05-21T12:18:36.877Z,24.70
2023-05-21T12:21:05.435Z,24.60
2023-05-21T12:23:32.898Z,24.50
2023-05-21T12:26:04.108Z,24.50
2023-05-21T12:28:32.368Z,24.50
2023-05-21T12:30:59.876Z,24.50
2023-05-21T12:33:35.304Z,24.40
2023-05-21T12:36:04.215Z,24.30
2023-05-21T12:38:32.248Z,24.10
2023-05-21T12:41:10.920Z,24.30
2023-05-21T12:43:41.944Z,24.30
2023-05-21T12:46:17.642Z,24.50
2023-05-21T12:48:57.571Z,24.70
2023-05-21T12:51:37.733Z,24.80
2023-05-21T12:54:11.730Z,24.90
2023-05-21T12:56:46.962Z,24.90
2023-05-21T12:59:21.955Z,24.80
2023-05-21T13:01:53.248Z,24.90
2023-05-21T13:04:21.539Z,25.00
2023-05-21T13:06:48.811Z,25.10
2023-05-21T13:09:24.487Z,25.10
2023-05-21T13:11:54.235Z,24.90
2023-05-21T13:14:24.902Z,24.80
2023-05-21T13:16:52.296Z,24.70
2023-05-21T13:19:20.068Z,24.50
2023-05-21T13:21:47.526Z,24.30
2023-05-21T13:24:17.647Z,24.10
2023-05-21T13:26:45.038Z,24.10
2023-05-21T13:29:15.091Z,23.90
2023-05-21T13:31:45.143Z,23.70
2023-05-21T13:34:13.992Z,23.50
2023-05-21T13:36:42.209Z,23.40
2023-05-21T13:39:14.816Z,23.40
2023-05-21T13:41:42.765Z,23.30
2023-05-21T13:44:10.496Z,23.30
2023-05-21T13:46:39.834Z,23.40
2023-05-21T13:49:07.246Z,23.40
2023-05-21T13:51:44.371Z,23.40
2023-05-21T13:54:14.289Z,23.40
2023-05-21T13:56:44.206Z,23.50
2023-05-21T13:59:11.914Z,23.30
2023-05-21T14:01:39.846Z,23.30
2023-05-21T14:04:07.404Z,23.40
2023-05-21T14:06:36.222Z,23.50
2023-05-21T14:09:04.228Z,23.80
2023-05-21T14:11:32.669Z,23.90
2023-05-21T14:14:01.029Z,24.00
2023-05-21T14:16:28.752Z,24.00
2023-05-21T14:18:59.726Z,24.00
2023-05-21T14:21:34.213Z,24.10
2023-05-21T14:24:02.658Z,24.10
2023-05-21T14:26:41.313Z,24.20
2023-05-21T14:29:10.159Z,24.20
2023-05-21T14:31:39.719Z,24.30
2023-05-21T14:34:10.590Z,24.50
2023-05-21T14:36:38.304Z,24.60
2023-05-21T14:39:08.087Z,24.70
2023-05-21T14:41:39.581Z,24.70
2023-05-21T14:44:08.611Z,24.70
2023-05-21T14:46:37.088Z,24.60
2023-05-21T14:49:05.193Z,24.60
2023-05-21T14:51:33.107Z,24.70
2023-05-21T14:54:03.211Z,24.80
2023-05-21T14:56:31.464Z,24.80
2023-05-21T14:58:59.002Z,24.70
2023-05-21T15:01:28.132Z,24.70
2023-05-21T15:03:58.075Z,24.70
2023-05-21T15:06:25.647Z,24.80
2023-05-21T15:08:59.182Z,24.80
2023-05-21T15:11:26.775Z,24.80
2023-05-21T15:13:54.332Z,24.90
2023-05-21T15:16:23.287Z,24.90
2023-05-21T15:18:53.736Z,25.00
2023-05-21T15:21:21.402Z,24.90
2023-05-21T15:23:55.204Z,24.80
2023-05-21T15:26:25.475Z,24.80
2023-05-21T15:28:53.351Z,24.70
2023-05-21T15:31:25.270Z,24.70
2023-05-21T15:33:53.140Z,24.60
2023-05-21T15:36:20.946Z,24.40
2023-05-21T15:38:48.898Z,24.20
2023-05-21T15:41:16.913Z,24.10
2023-05-21T15:43:47.319Z,24.10
2023-05-21T15:46:16.609Z,24.00
2023-05-21T15:48:43.894Z,24.00
2023-05-21T15:51:14.470Z,24.00
2023-05-21T15:53:42.161Z,24.00
2023-05-21T15:56:10.624Z,23.90
2023-05-21T15:58:38.565Z,24.00
2023-05-21T16:01:06.743Z,23.80
2023-05-21T16:03:39.141Z,23.80
2023-05-21T16:06:10.792Z,23.80
2023-05-21T16:08:39.453Z,23.70
2023-05-21T16:11:09.897Z,23.70
2023-05-21T16:13:37.882Z,23.60
2023-05-21T16:16:06.365Z,23.60
2023-05-21T16:18:34.122Z,23.60
2023-05-21T16:21:05.553Z,23.60
2023-05-21T16:23:34.567Z,23.60
2023-05-21T16:26:02.938Z,23.60
2023-05-21T16:28:30.702Z,23.60
2023-05-21T16:31:01.702Z,23.60
2023-05-21T16:33:31.484Z,23.50
2023-05-21T16:36:02.605Z,23.50
2023-05-21T16:38:33.771Z,23.30
2023-05-21T16:41:05.461Z,23.30
2023-05-21T16:43:34.197Z,23.20
2023-05-21T16:46:02.629Z,23.00
2023-05-21T16:48:32.336Z,23.00
2023-05-21T16:51:01.265Z,22.80
2023-05-21T16:53:29.385Z,22.70
2023-05-21T16:55:57.329Z,22.60
2023-05-21T16:58:27.228Z,22.60
2023-05-21T17:00:59.778Z,22.60
2023-05-21T17:03:27.381Z,22.60
2023-05-21T17:05:55.249Z,22.50
2023-05-21T17:08:24.305Z,22.40
2023-05-21T17:10:53.931Z,22.30
2023-05-21T17:13:23.387Z,22.20
2023-05-21T17:15:53.507Z,22.00
2023-05-21T17:18:23.674Z,22.00
2023-05-21T17:20:52.802Z,21.90
2023-05-21T17:23:20.854Z,21.80
2023-05-21T17:25:48.908Z,21.70
2023-05-21T17:28:19.860Z,21.60
2023-05-21T17:30:49.681Z,21.50
2023-05-21T17:33:20.705Z,21.40
2023-05-21T17:35:48.268Z,21.40
2023-05-21T17:38:15.978Z,21.30
2023-05-21T17:40:43.713Z,21.20
2023-05-21T17:43:19.495Z,21.30
2023-05-21T17:45:47.639Z,21.10
2023-05-21T17:48:15.228Z,21.10
2023-05-21T17:50:43.082Z,21.10
2023-05-21T17:53:14.035Z,21.10
2023-05-21T17:55:42.590Z,21.10
2023-05-21T17:58:11.611Z,21.00
2023-05-21T18:00:39.101Z,21.00
2023-05-21T18:03:08.942Z,20.90
2023-05-21T18:05:36.785Z,20.80
2023-05-21T18:08:04.891Z,20.80
2023-05-21T18:10:35.862Z,20.70
2023-05-21T18:13:03.821Z,20.70
2023-05-21T18:15:31.284Z,20.60
2023-05-21T18:17:59.122Z,20.50
2023-05-21T18:20:29.228Z,20.40
2023-05-21T18:22:56.667Z,20.40
2023-05-21T18:25:27.514Z,20.20
2023-05-21T18:27:55.338Z,20.10
2023-05-21T18:30:26.122Z,20.10
2023-05-21T18:32:54.163Z,19.90
2023-05-21T18:35:21.580Z,19.90
2023-05-21T18:37:48.958Z,19.80
2023-05-21T18:40:19.476Z,19.70
2023-05-21T18:42:47.979Z,19.60
2023-05-21T18:45:17.785Z,19.60
2023-05-21T18:47:46.325Z,19.50
2023-05-21T18:50:19.254Z,19.40
2023-05-21T18:52:48.753Z,19.30
2023-05-21T18:55:16.584Z,19.30
2023-05-21T18:57:44.261Z,19.20
2023-05-21T19:00:15.118Z,19.30
2023-05-21T19:02:45.417Z,19.10
2023-05-21T19:05:13.429Z,19.20
2023-05-21T19:07:43.925Z,19.10
2023-05-21T19:10:14.201Z,19.00
2023-05-21T19:12:44.099Z,19.00
2023-05-21T19:15:14.852Z,18.90
2023-05-21T19:17:42.443Z,18.80
2023-05-21T19:20:13.772Z,18.70
2023-05-21T19:22:55.768Z,18.80
2023-05-21T19:25:34.374Z,18.80
2023-05-21T19:28:06.350Z,18.70
2023-05-21T19:30:36.828Z,18.60
2023-05-21T19:33:05.658Z,18.60
2023-05-21T19:35:33.392Z,18.50
2023-05-21T19:38:04.168Z,18.50
2023-05-21T19:40:36.778Z,18.50
2023-05-21T19:43:05.069Z,18.50
2023-05-21T19:45:33.012Z,18.40
2023-05-21T19:48:00.663Z,18.40
2023-05-21T19:50:30.520Z,18.40
2023-05-21T19:52:59.150Z,18.40
2023-05-21T19:55:31.474Z,18.40
2023-05-21T19:57:59.069Z,18.40
2023-05-21T20:00:30.344Z,18.30
2023-05-21T20:02:58.343Z,18.30
2023-05-21T20:05:25.957Z,18.20
2023-05-21T20:07:53.657Z,18.20
2023-05-21T20:10:21.798Z,18.10
2023-05-21T20:12:49.148Z,18.20
2023-05-21T20:15:22.166Z,18.20
2023-05-21T20:17:50.589Z,18.20
2023-05-21T20:20:18.917Z,18.10
2023-05-21T20:22:47.969Z,18.10
2023-05-21T20:25:15.466Z,18.10
2023-05-21T20:27:43.917Z,18.00
2023-05-21T20:30:11.523Z,18.10
2023-05-21T20:32:40.098Z,17.90
2023-05-21T20:35:12.577Z,18.00
2023-05-21T20:37:40.395Z,17.90
2023-05-21T20:40:14.819Z,18.00
2023-05-21T20:42:45.203Z,17.90
2023-05-21T20:45:13.402Z,17.60
2023-05-21T20:47:42.535Z,17.70
2023-05-21T20:50:13.327Z,17.60
2023-05-21T20:52:40.904Z,17.60
2023-05-21T20:55:08.970Z,17.50
2023-05-21T20:57:37.050Z,17.50
2023-05-21T21:00:05.895Z,17.40
2023-05-21T21:02:39.222Z,17.40
2023-05-21T21:05:10.685Z,17.30
2023-05-21T21:07:38.640Z,17.20
2023-05-21T21:10:06.954Z,17.10
2023-05-21T21:12:35.120Z,17.10
2023-05-21T21:15:05.768Z,17.00
2023-05-21T21:17:33.860Z,17.10
2023-05-21T21:20:01.882Z,17.00
2023-05-21T21:22:33.126Z,17.00
2023-05-21T21:25:01.021Z,17.00
2023-05-21T21:27:30.691Z,16.90
2023-05-21T21:29:58.449Z,16.90
2023-05-21T21:32:26.379Z,16.90
2023-05-21T21:34:53.879Z,16.90
2023-05-21T21:37:21.880Z,16.90
2023-05-21T21:39:49.401Z,16.80
2023-05-21T21:42:17.512Z,16.80
2023-05-21T21:44:45.570Z,16.90
2023-05-21T21:47:13.260Z,16.80
2023-05-21T21:49:45.299Z,16.90
2023-05-21T21:52:15.316Z,16.90
2023-05-21T21:54:45.567Z,16.90
2023-05-21T21:57:14.869Z,16.90
2023-05-21T21:59:42.328Z,16.90
2023-05-21T22:02:10.118Z,16.90
2023-05-21T22:04:38.124Z,16.90
2023-05-21T22:07:06.475Z,16.90
2023-05-21T22:09:33.967Z,16.90
2023-05-21T22:12:11.665Z,16.90
2023-05-21T22:14:40.565Z,16.80
2023-05-21T22:17:10.855Z,16.90
2023-05-21T22:19:38.724Z,16.80
2023-05-21T22:22:11.034Z,16.90
2023-05-21T22:24:39.414Z,16.90
2023-05-21T22:27:09.928Z,16.90
2023-05-21T22:29:37.718Z,16.80
2023-05-21T22:32:05.528Z,16.90
2023-05-21T22:34:33.385Z,16.90
2023-05-21T22:37:01.753Z,16.80
2023-05-21T22:39:29.133Z,16.80
2023-05-21T22:41:57.380Z,16.80
2023-05-21T22:44:24.844Z,16.80
2023-05-21T22:46:56.909Z,16.70
2023-05-21T22:49:27.435Z,16.60
2023-05-21T22:51:55.259Z,16.50
2023-05-21T22:54:22.786Z,16.50
2023-05-21T22:56:50.703Z,16.50
2023-05-21T22:59:18.189Z,16.40
2023-05-21T23:01:48.796Z,16.40
2023-05-21T23:04:16.474Z,16.30
2023-05-21T23:06:43.972Z,16.20
2023-05-21T23:09:13.229Z,16.20
2023-05-21T23:11:40.747Z,16.20
2023-05-21T23:14:08.929Z,16.10
2023-05-21T23:16:36.477Z,16.10
2023-05-21T23:19:09.274Z,16.00
2023-05-21T23:21:37.427Z,16.10
2023-05-21T23:24:07.709Z,15.90
2023-05-21T23:26:38.327Z,15.90
2023-05-21T23:29:06.291Z,15.90
2023-05-21T23:31:36.313Z,15.90
2023-05-21T23:34:05.376Z,15.80
2023-05-21T23:36:32.850Z,15.70
2023-05-21T23:39:00.528Z,15.80
2023-05-21T23:41:31.382Z,15.80
2023-05-21T23:44:01.084Z,15.70
2023-05-21T23:46:28.785Z,15.60
2023-05-21T23:48:56.409Z,15.70
2023-05-21T23:51:31.362Z,15.60
2023-05-21T23:53:59.508Z,15.60
2023-05-21T23:56:27.329Z,15.60
2023-05-21T23:58:57.804Z,15.60
